Terminal Aerodrome Forecast
Issued by NWS Chicago, IL

Home | Current Version | Previous Version | Text Only | Print | Product List | Glossary On
Versions: 1 2 3 4 5 6 7 8 9 10 11 12 13 14 15 16 17 18 19 20 21 22 23 24 25
483
FTUS43 KLOT 180901 AAA
TAFRFD
TAF AMD
KRFD 180901Z 1809/1906 18005KT 6SM BR BCFG SKC
     FM181030 00000KT 3SM BR BCFG SKC
      TEMPO 1811/1814 1SM BR MIFG SCT003
     FM181500 17012KT P6SM SCT250
     FM181800 17017G26KT P6SM SCT250 WS020/20050KT
     FM190000 17014G22KT P6SM BKN250 WS020/22055KT=

USA.gov is the U.S. government's official web portal to all federal, state and local government web resources and services.